OJAM

Details ICAO OJAM (ADJ)
Name MARKA INTL
Region Jordan and the West Bank
Timezone Asia/Amman (UTC+2.0)
Plans Departing 48
Arriving 38
Stats Elevation 2,555 ft / 779 m (AMSL)
Location 31.972703° 35.991572°
Runways 1
Magnetic Variation 4.691° E
Sunrise 2017-12-17 04:31:36 UTC / 2017-12-17 06:31:36 Local
Sunset 2017-12-17 14:35:21 UTC / 2017-12-17 16:35:21 Local
Advertisement - Login to hide

Runways

ID Width Length Bearing (true) Bearing (mag) Surface Threshold Offset Overrun Length
06 148 ft / 45 m 10,736 ft / 3,272 m 64.03° 59.34° Asphalt 0 ft / 0 m 735 ft / 224 m
24 148 ft / 45 m 10,736 ft / 3,272 m 244.05° 239.36° Asphalt 0 ft / 0 m 394 ft / 120 m

Approach Navaids

Runway Type Ident Frequency Range Bearing (true) Bearing (mag) Slope Elevation
24 Localiser LAMN 109.50 MHz 18 nm / 33 km 244.07° 239.38° - 2,557 ft / 779 m (AMSL)
24 Glidescope LAMN 109.50 MHz 10 nm / 19 km 244.04° 239.35° 3.00° 2,457 ft / 749 m (AMSL)

Map

Weather


0- 5 10 15 20 25 30 35+ Temperature / ° C

Clouds and Precipitation
Forecast for 2017-12-18 00:00 UTC. Updated an hour ago

Ground ~20,000 ft ~40,000 ft Winds

METAR

OJAM 172000Z 00000KT 5000 HZ NSC 12/M01 Q1022 NOSIG

TAF

TAF OJAM 171700Z 1718/1824 14006KT 5000 HZ FEW100 BECMG 1720/1722 SCT100 TEMPO 1802/1806 VRB02KT 3000 FU

Frequencies

Ground 121.70 MHz AMMAN GND
Approach 128.90 MHz AMMAN APP
Tower 118.10 MHz AMMAN TWR
Warning: Do not use this data for real-world aviation or navigation. No guarantee of current accuracy is given.